Time;durP1;ratioP1;P1;durP2;ratioP2;P2;SDS_P1;SDS_P2;PMS_P1;PMS_P2;Temp;Humidity;BMP_temperature;BMP_pressure;BME280_temperature;BME280_humidity;BME280_pressure;Samples;Min_cycle;Max_cycle;Signal;HPM_P1;HPM_P2
2022/05/05 00:01:41;;;;;;;13.20;10.02;;;;;;;13.47;55.21;101851.69;5071357;28;20024;-63
2022/05/05 00:04:08;;;;;;;13.77;10.13;;;;;;;13.34;55.69;101852.41;5071885;28;20032;-62
2022/05/05 00:06:33;;;;;;;14.95;10.75;;;;;;;13.27;56.02;101852.88;5072581;28;20028;-62
2022/05/05 00:09:00;;;;;;;16.20;10.32;;;;;;;13.18;55.68;101831.03;5072415;28;20031;-62
2022/05/05 00:14:25;;;;;;;15.07;10.45;;;;;;;13.26;55.66;101859.13;5071564;28;20093;-62
2022/05/05 00:16:50;;;;;;;14.10;10.32;;;;;;;13.07;56.12;101864.66;5055931;28;20029;-62
2022/05/05 00:19:15;;;;;;;13.18;10.55;;;;;;;13.07;56.06;101856.66;5071727;28;20490;-62
2022/05/05 00:21:41;;;;;;;13.32;10.52;;;;;;;13.03;56.10;101855.09;5071243;28;20033;-62
2022/05/05 00:24:08;;;;;;;13.85;10.10;;;;;;;12.99;56.23;101859.75;5054191;28;20045;-62
2022/05/05 00:26:33;;;;;;;15.75;11.07;;;;;;;12.90;56.48;101847.78;5072145;28;20028;-62
2022/05/05 00:28:59;;;;;;;14.77;11.57;;;;;;;12.98;56.78;101855.38;5072206;28;20044;-63
2022/05/05 00:31:25;;;;;;;14.38;10.80;;;;;;;12.93;57.08;101852.94;5072051;28;20025;-62
2022/05/05 00:33:51;;;;;;;12.52;11.23;;;;;;;12.78;57.53;101855.63;5070240;28;20040;-62
2022/05/05 00:36:16;;;;;;;15.93;11.45;;;;;;;12.87;57.13;101847.94;5072016;28;20438;-63
2022/05/05 00:38:42;;;;;;;13.60;10.85;;;;;;;12.88;57.33;101857.72;5071572;28;20024;-63
2022/05/05 00:41:08;;;;;;;19.80;10.80;;;;;;;12.80;57.63;101854.59;5071994;28;20407;-62
2022/05/05 00:43:34;;;;;;;14.77;11.02;;;;;;;12.76;57.66;101849.50;5071785;28;20029;-62
2022/05/05 00:46:00;;;;;;;13.57;11.35;;;;;;;12.57;58.05;101849.69;5071279;28;20036;-62
2022/05/05 00:48:27;;;;;;;16.38;11.20;;;;;;;12.64;57.99;101851.06;5070822;28;20387;-62
2022/05/05 00:50:54;;;;;;;17.52;11.48;;;;;;;12.54;58.50;101844.53;5071249;28;20502;-62
2022/05/05 00:53:20;;;;;;;14.90;11.95;;;;;;;12.57;58.34;101847.88;5072255;28;20036;-62
2022/05/05 00:55:50;;;;;;;20.17;11.60;;;;;;;12.56;58.54;101845.28;5071755;28;20029;-62
2022/05/05 00:58:16;;;;;;;14.60;11.32;;;;;;;12.49;58.43;101847.44;5071844;28;20025;-62
2022/05/05 01:00:44;;;;;;;16.17;11.80;;;;;;;12.56;58.60;101842.59;5070950;28;20109;-62
2022/05/05 01:03:11;;;;;;;15.45;11.48;;;;;;;12.44;58.81;101837.03;5070598;28;20090;-62
2022/05/05 01:05:38;;;;;;;19.63;12.30;;;;;;;12.57;58.73;101847.88;5071064;28;20027;-62
2022/05/05 01:08:07;;;;;;;16.17;11.80;;;;;;;12.54;58.64;101842.72;5071787;28;20038;-62
2022/05/05 01:10:32;;;;;;;18.23;11.82;;;;;;;12.50;59.09;101849.16;5070134;28;20020;-62
2022/05/05 01:13:01;;;;;;;15.05;12.05;;;;;;;12.51;59.18;101848.22;5070630;28;20066;-62
2022/05/05 01:15:28;;;;;;;17.23;12.48;;;;;;;12.47;59.23;101844.84;5071461;28;20027;-62
2022/05/05 01:17:54;;;;;;;19.23;13.57;;;;;;;12.45;59.34;101849.41;5070367;28;20020;-62
2022/05/05 01:20:22;;;;;;;20.13;12.98;;;;;;;12.43;59.66;101843.28;5070827;28;20025;-62
2022/05/05 01:22:49;;;;;;;16.92;12.35;;;;;;;12.32;60.10;101844.81;5071541;28;20081;-62
2022/05/05 01:28:10;;;;;;;18.23;12.35;;;;;;;12.45;60.10;101844.06;5070859;28;20052;-62
2022/05/05 01:30:38;;;;;;;18.85;12.65;;;;;;;12.46;59.72;101836.94;5069830;28;20456;-62
2022/05/05 01:33:23;;;;;;;18.85;11.73;;;;;;;12.49;59.56;101844.75;5071469;28;20040;-62
2022/05/05 01:35:56;;;;;;;15.50;12.05;;;;;;;12.50;59.65;101842.03;5070925;28;20032;-62
2022/05/05 01:38:37;;;;;;;15.93;12.32;;;;;;;12.53;59.47;101842.78;5071502;28;20020;-62
2022/05/05 01:41:08;;;;;;;14.40;12.80;;;;;;;12.54;59.91;101837.38;5071221;28;20027;-62
2022/05/05 01:43:34;;;;;;;15.75;12.38;;;;;;;12.50;60.08;101839.34;5069980;28;20069;-62
2022/05/05 01:46:00;;;;;;;17.08;13.00;;;;;;;12.52;60.07;101841.06;5070179;28;20356;-63
2022/05/05 01:48:27;;;;;;;19.63;12.75;;;;;;;12.52;60.13;101839.25;5053500;28;20024;-62
2022/05/05 01:50:52;;;;;;;14.32;12.23;;;;;;;12.49;60.25;101850.09;5070674;28;20020;-62
2022/05/05 01:53:17;;;;;;;15.98;12.40;;;;;;;12.39;60.75;101851.56;5071171;28;20024;-62
2022/05/05 01:55:43;;;;;;;15.75;12.20;;;;;;;12.45;60.47;101853.88;5070611;28;20523;-62
2022/05/05 01:58:08;;;;;;;17.42;12.32;;;;;;;12.54;60.59;101852.53;5070829;28;20032;-62
2022/05/05 02:00:35;;;;;;;21.00;13.02;;;;;;;12.56;60.75;101853.28;5074652;28;20070;-62
2022/05/05 02:03:01;;;;;;;18.48;13.40;;;;;;;12.47;61.03;101857.31;5073767;28;20051;-62
2022/05/05 02:05:26;;;;;;;17.80;11.70;;;;;;;12.49;61.09;101853.63;5090061;28;20020;-62
2022/05/05 02:07:52;;;;;;;19.55;12.90;;;;;;;12.36;61.23;101844.59;5074874;28;20031;-62
2022/05/05 02:10:20;;;;;;;17.80;12.27;;;;;;;12.46;61.21;101852.94;5074603;28;20017;-62
2022/05/05 02:12:51;;;;;;;17.23;12.13;;;;;;;12.44;61.17;101847.69;5074555;28;20033;-62
2022/05/05 02:15:16;;;;;;;16.27;12.80;;;;;;;12.46;61.08;101852.94;5074611;28;20479;-62
2022/05/05 02:17:44;;;;;;;16.98;13.25;;;;;;;12.44;60.93;101860.16;5090246;28;20086;-62
2022/05/05 02:20:11;;;;;;;18.60;12.15;;;;;;;12.38;61.16;101856.03;5074098;28;20036;-62
2022/05/05 02:22:39;;;;;;;16.92;12.68;;;;;;;12.41;60.99;101858.53;5074504;28;20054;-62
2022/05/05 02:25:06;;;;;;;15.63;11.30;;;;;;;12.47;61.33;101859.97;5074324;28;20138;-62
2022/05/05 02:27:44;;;;;;;15.88;12.15;;;;;;;12.47;61.11;101858.19;5073070;28;20017;-62
2022/05/05 02:30:13;;;;;;;13.93;12.00;;;;;;;12.44;61.17;101853.03;5073589;28;20024;-62
2022/05/05 02:32:39;;;;;;;14.65;12.20;;;;;;;12.44;61.16;101854.81;5090041;28;20055;-62
2022/05/05 02:35:06;;;;;;;18.23;12.40;;;;;;;12.43;60.96;101855.78;5072603;28;20125;-62
2022/05/05 02:40:17;;;;;;;19.00;12.02;;;;;;;12.43;60.81;101859.28;5074058;28;20545;-62
2022/05/05 02:42:45;;;;;;;15.73;11.98;;;;;;;12.42;60.87;101857.59;5089332;28;20037;-62
2022/05/05 02:45:10;;;;;;;22.52;12.77;;;;;;;12.46;61.38;101853.78;5073955;28;20033;-62
2022/05/05 02:47:36;;;;;;;14.65;11.95;;;;;;;12.42;61.65;101854.91;5073947;28;20024;-62
2022/05/05 02:50:02;;;;;;;14.60;12.27;;;;;;;12.48;61.32;101853.72;5073144;28;20105;-62
2022/05/05 02:52:28;;;;;;;19.10;12.73;;;;;;;12.44;61.25;101854.81;5072509;28;20039;-62
2022/05/05 02:54:55;;;;;;;17.77;12.32;;;;;;;12.51;60.64;101858.88;5089245;28;20024;-62
2022/05/05 02:57:23;;;;;;;16.25;12.30;;;;;;;12.45;60.82;101854.75;5073815;28;20100;-62
2022/05/05 02:59:50;;;;;;;16.90;12.32;;;;;;;12.54;61.14;101855.19;5073454;28;20195;-62
2022/05/05 03:02:17;;;;;;;16.70;12.90;;;;;;;12.44;61.32;101860.16;5073873;28;20028;-62
2022/05/05 03:04:43;;;;;;;18.52;12.55;;;;;;;12.44;60.98;101850.38;5073160;28;20029;-62
2022/05/05 03:07:08;;;;;;;18.00;12.02;;;;;;;12.37;61.44;101851.63;5073861;28;20494;-62
2022/05/05 03:09:34;;;;;;;16.52;12.73;;;;;;;12.40;61.32;101854.13;5055138;28;20086;-62
2022/05/05 03:11:59;;;;;;;20.73;13.48;;;;;;;12.45;61.13;101853.88;5072329;28;20035;-62
2022/05/05 03:14:25;;;;;;;19.13;13.80;;;;;;;12.36;61.33;101838.38;5072239;28;20025;-62
2022/05/05 03:16:51;;;;;;;19.75;13.40;;;;;;;12.28;61.21;101852.13;5073430;28;20060;-62
2022/05/05 03:19:16;;;;;;;21.48;13.88;;;;;;;12.35;61.15;101853.50;5072950;28;20391;-62
2022/05/05 03:21:42;;;;;;;23.30;13.90;;;;;;;12.39;61.41;101852.41;5073334;28;20037;-62
2022/05/05 03:24:07;;;;;;;18.63;13.07;;;;;;;12.36;61.64;101851.72;5073363;28;20024;-62
2022/05/05 03:26:33;;;;;;;21.02;12.55;;;;;;;12.35;61.72;101852.66;5071899;28;20024;-62
2022/05/05 03:28:59;;;;;;;19.98;13.55;;;;;;;12.27;61.88;101840.59;5073222;28;20032;-62
2022/05/05 03:31:24;;;;;;;23.77;14.15;;;;;;;12.32;62.25;101858.16;5089214;28;20036;-62
2022/05/05 03:33:50;;;;;;;20.42;13.02;;;;;;;12.36;61.92;101860.59;5071345;28;20100;-62
2022/05/05 03:36:18;;;;;;;24.13;14.20;;;;;;;12.37;61.39;101856.97;5072075;28;20566;-62
2022/05/05 03:38:44;;;;;;;24.92;13.10;;;;;;;12.28;62.35;101861.00;5072969;28;20021;-62
2022/05/05 03:41:10;;;;;;;21.05;13.35;;;;;;;12.24;61.98;101862.13;5071561;28;20067;-62
2022/05/05 03:43:38;;;;;;;20.80;13.40;;;;;;;12.20;62.55;101871.19;5071757;28;20036;-62
2022/05/05 03:46:04;;;;;;;23.38;13.55;;;;;;;12.17;62.66;101863.38;5073137;28;20150;-62
2022/05/05 03:48:32;;;;;;;22.20;14.48;;;;;;;12.08;63.03;101858.53;5088359;28;20032;-62
2022/05/05 03:50:57;;;;;;;21.75;13.43;;;;;;;12.19;63.01;101872.16;5072573;28;20023;-62
2022/05/05 03:53:23;;;;;;;17.25;12.82;;;;;;;12.20;63.16;101873.00;5071600;28;20033;-62
2022/05/05 03:55:51;;;;;;;18.70;13.50;;;;;;;12.22;62.83;101873.81;5054395;28;20025;-62
2022/05/05 03:58:18;;;;;;;21.92;14.00;;;;;;;12.23;62.33;101880.84;5073103;28;20472;-62
2022/05/05 04:00:46;;;;;;;20.02;14.18;;;;;;;12.26;62.12;101884.25;5070975;28;20041;-62
2022/05/05 04:03:30;;;;;;;17.63;13.15;;;;;;;12.30;62.46;101876.06;5071662;28;20037;-62
2022/05/05 04:05:56;;;;;;;18.80;13.52;;;;;;;12.31;62.32;101880.44;5070997;28;20023;-62
2022/05/05 04:08:21;;;;;;;19.90;13.88;;;;;;;12.26;63.13;101886.91;5071373;28;20036;-62
2022/05/05 04:10:47;;;;;;;23.63;14.48;;;;;;;12.25;63.20;101886.97;5070993;28;20111;-62
2022/05/05 04:13:12;;;;;;;20.13;13.07;;;;;;;12.22;63.08;101892.47;5054376;28;20028;-62
2022/05/05 04:15:38;;;;;;;19.15;14.38;;;;;;;12.24;62.60;101891.44;5070799;28;20029;-62
2022/05/05 04:18:05;;;;;;;18.90;14.25;;;;;;;12.14;63.26;101886.69;5072393;28;20024;-62
2022/05/05 04:20:30;;;;;;;21.27;14.80;;;;;;;12.25;63.22;101892.31;5069793;28;20025;-62
2022/05/05 04:22:58;;;;;;;21.85;14.43;;;;;;;12.22;63.37;101888.00;5071170;28;20043;-62
2022/05/05 04:25:24;;;;;;;22.88;14.45;;;;;;;12.15;63.57;101891.09;5071728;28;20432;-62
2022/05/05 04:27:50;;;;;;;21.08;13.57;;;;;;;12.20;63.39;101897.88;5070948;28;20138;-62
2022/05/05 04:30:16;;;;;;;18.40;14.10;;;;;;;12.15;63.79;101889.28;5071913;28;20144;-62
2022/05/05 04:32:42;;;;;;;21.50;14.52;;;;;;;12.22;63.56;101900.47;5071988;28;20027;-62
2022/05/05 04:35:08;;;;;;;18.08;15.07;;;;;;;12.22;63.86;101901.34;5071636;28;20024;-62
2022/05/05 04:37:34;;;;;;;19.65;15.63;;;;;;;12.17;63.78;101907.84;5071635;28;20029;-62
2022/05/05 04:39:59;;;;;;;22.67;15.40;;;;;;;12.20;63.57;101899.69;5070562;28;20044;-62
2022/05/05 04:42:28;;;;;;;23.15;14.88;;;;;;;12.11;63.84;101897.50;5070751;28;20040;-62
2022/05/05 04:44:53;;;;;;;21.52;15.38;;;;;;;12.11;63.38;101908.19;5071679;28;20021;-62
2022/05/05 04:47:19;;;;;;;19.75;15.40;;;;;;;12.12;63.45;101905.44;5087551;28;20210;-62
2022/05/05 04:49:47;;;;;;;18.55;14.43;;;;;;;12.13;63.86;101907.16;5071024;28;20024;-62
2022/05/05 04:52:13;;;;;;;21.27;15.57;;;;;;;12.13;63.90;101908.97;5070450;28;20036;-62
2022/05/05 04:54:38;;;;;;;23.10;15.52;;;;;;;12.22;63.41;101911.16;5071476;28;20032;-62
2022/05/05 04:57:05;;;;;;;20.23;15.15;;;;;;;12.24;63.37;101915.47;5070386;28;20571;-62
2022/05/05 04:59:31;;;;;;;21.42;16.23;;;;;;;12.27;62.78;101914.44;5071275;28;20109;-62
2022/05/05 05:01:57;;;;;;;20.80;15.45;;;;;;;12.26;62.87;101916.25;5070605;28;20124;-62
2022/05/05 05:04:25;;;;;;;22.67;15.63;;;;;;;12.25;63.35;101918.97;5071126;28;20446;-62
2022/05/05 05:06:51;;;;;;;21.20;15.70;;;;;;;12.28;63.48;101926.81;5071201;28;20087;-62
2022/05/05 05:09:17;;;;;;;19.77;15.38;;;;;;;12.27;63.48;101922.44;5070228;28;20039;-62
2022/05/05 05:11:42;;;;;;;24.83;15.40;;;;;;;12.23;63.47;101927.06;5070276;28;20036;-62
2022/05/05 05:14:08;;;;;;;22.08;15.65;;;;;;;12.24;63.82;101933.28;5071342;28;20441;-62
2022/05/05 05:16:34;;;;;;;18.40;15.13;;;;;;;12.21;64.00;101936.09;5070319;28;20033;-62
2022/05/05 05:19:03;;;;;;;26.13;16.17;;;;;;;12.20;64.17;101931.69;5069886;28;20028;-62
2022/05/05 05:21:31;;;;;;;22.15;15.60;;;;;;;12.14;64.61;101935.53;5071394;28;20033;-62
2022/05/05 05:23:57;;;;;;;23.55;16.25;;;;;;;12.22;64.24;101936.00;5071420;28;20416;-62
2022/05/05 05:26:23;;;;;;;22.65;15.70;;;;;;;12.21;65.05;101936.09;5070038;28;20082;-62
2022/05/05 05:28:49;;;;;;;28.42;16.13;;;;;;;12.15;65.00;101937.28;5071230;28;20536;-62
2022/05/05 05:31:16;;;;;;;19.60;14.82;;;;;;;12.27;65.07;101946.44;5071552;28;20095;-62
2022/05/05 05:33:42;;;;;;;25.55;16.35;;;;;;;12.19;65.08;101943.31;5073279;28;20024;-62
2022/05/05 05:36:08;;;;;;;20.38;15.07;;;;;;;12.24;64.97;101942.13;5075267;28;20028;-62
2022/05/05 05:38:36;;;;;;;25.02;15.50;;;;;;;12.25;65.40;101943.00;5075327;28;20387;-62
2022/05/05 05:41:02;;;;;;;22.02;15.73;;;;;;;12.27;65.54;101946.44;5075136;28;20031;-62
2022/05/05 05:43:27;;;;;;;26.02;15.25;;;;;;;12.16;65.80;101941.66;5057529;28;20392;-62
2022/05/05 05:45:53;;;;;;;27.83;15.70;;;;;;;12.28;65.58;101948.16;5073555;28;20119;-62
2022/05/05 05:48:19;;;;;;;30.00;15.75;;;;;;;12.27;65.58;101947.31;5057369;28;20056;-62
2022/05/05 05:50:44;;;;;;;28.40;15.98;;;;;;;12.30;65.47;101948.09;5074146;28;20111;-62
2022/05/05 05:53:11;;;;;;;28.83;16.25;;;;;;;12.39;65.54;101961.81;5073848;28;20039;-62
2022/05/05 05:55:36;;;;;;;21.10;15.55;;;;;;;12.48;65.65;101957.78;5074725;28;20025;-62
2022/05/05 05:58:02;;;;;;;23.85;15.93;;;;;;;12.45;65.30;101952.63;5074807;28;20158;-62
2022/05/05 06:00:28;;;;;;;23.40;16.58;;;;;;;12.59;64.49;101952.75;5074864;28;20047;-62
2022/05/05 06:05:38;;;;;;;21.13;16.00;;;;;;;12.78;63.63;101959.75;5074220;28;20127;-62
2022/05/05 06:08:04;;;;;;;22.10;16.65;;;;;;;12.92;63.46;101957.19;5073193;28;20107;-62
2022/05/05 06:10:32;;;;;;;26.17;16.38;;;;;;;13.02;62.95;101965.53;5056757;28;20021;-62
2022/05/05 06:13:00;;;;;;;27.20;17.38;;;;;;;13.14;62.56;101964.84;5074829;28;20028;-62
2022/05/05 06:15:28;;;;;;;25.83;17.83;;;;;;;13.23;61.56;101967.00;5073715;28;20479;-62
2022/05/05 06:17:54;;;;;;;28.85;17.65;;;;;;;13.25;61.73;101967.81;5073336;28;20104;-62
2022/05/05 06:20:21;;;;;;;25.65;17.05;;;;;;;13.28;60.02;101970.31;5072628;28;20063;-62
2022/05/05 06:22:47;;;;;;;25.25;17.20;;;;;;;13.25;61.95;101965.16;5074290;28;20029;-62
2022/05/05 06:25:15;;;;;;;21.23;15.88;;;;;;;13.36;60.06;101973.44;5073214;28;20506;-62
2022/05/05 06:27:40;;;;;;;25.77;15.02;;;;;;;13.38;59.23;101959.97;5089992;28;20399;-62
2022/05/05 06:30:09;;;;;;;23.30;15.88;;;;;;;13.48;58.83;101973.69;5056254;28;20025;-62
2022/05/05 06:32:37;;;;;;;22.33;14.27;;;;;;;13.56;58.15;101972.28;5073191;28;20032;-63
2022/05/05 06:35:03;;;;;;;20.20;14.85;;;;;;;13.75;57.64;101968.53;5072126;28;20471;-62
2022/05/05 06:37:28;;;;;;;27.08;16.25;;;;;;;13.86;57.63;101980.34;5056447;28;20043;-62
2022/05/05 06:39:54;;;;;;;27.42;16.35;;;;;;;14.04;57.20;101977.53;5074356;28;20032;-62
2022/05/05 06:42:20;;;;;;;25.83;17.00;;;;;;;14.13;56.26;101978.78;5073340;28;20040;-62
2022/05/05 06:44:46;;;;;;;25.35;16.70;;;;;;;14.28;55.94;101977.88;5055089;28;20102;-62
2022/05/05 06:47:11;;;;;;;26.10;16.58;;;;;;;14.42;55.53;101977.03;5073843;28;20018;-62
2022/05/05 06:49:36;;;;;;;25.52;18.02;;;;;;;14.48;55.43;101968.63;5071747;28;20391;-62
2022/05/05 06:52:03;;;;;;;28.80;19.50;;;;;;;14.56;55.08;101981.56;5073905;28;20044;-62
2022/05/05 06:54:29;;;;;;;31.70;22.00;;;;;;;14.62;55.24;101979.38;5074042;28;20020;-62
2022/05/05 06:56:56;;;;;;;32.78;21.63;;;;;;;14.76;55.80;101984.75;5074029;28;20521;-62
2022/05/05 06:59:24;;;;;;;37.05;24.92;;;;;;;14.80;55.85;101984.56;5072291;28;20040;-62
2022/05/05 07:01:52;;;;;;;43.63;27.85;;;;;;;14.71;56.47;101988.66;5073634;28;20148;-62
2022/05/05 07:07:13;;;;;;;51.55;34.70;;;;;;;14.65;58.46;101991.72;5074213;28;20070;-62
2022/05/05 07:12:23;;;;;;;50.63;34.25;;;;;;;14.70;57.71;102003.00;5073943;28;20044;-62
2022/05/05 07:14:49;;;;;;;53.45;33.47;;;;;;;14.84;58.10;101999.47;5071902;28;20416;-62
2022/05/05 07:17:17;;;;;;;52.45;37.15;;;;;;;14.97;57.54;102001.28;5071924;28;20016;-63
2022/05/05 07:19:43;;;;;;;52.65;34.80;;;;;;;15.15;57.19;102009.13;5071442;28;20112;-62
2022/05/05 07:22:09;;;;;;;58.13;38.83;;;;;;;15.28;57.09;102010.03;5073620;28;20020;-62
2022/05/05 07:24:35;;;;;;;61.78;39.88;;;;;;;15.46;56.62;102013.34;5071950;28;20039;-62
2022/05/05 07:27:02;;;;;;;55.85;38.63;;;;;;;15.65;56.82;102013.88;5073410;28;20025;-62
2022/05/05 07:29:28;;;;;;;59.55;39.65;;;;;;;15.89;56.75;102011.41;5072087;28;20050;-62
2022/05/05 07:31:54;;;;;;;56.17;39.78;;;;;;;16.07;55.83;102019.19;5071632;28;20020;-62
2022/05/05 07:34:19;;;;;;;64.68;43.25;;;;;;;16.17;56.00;102014.91;5071073;28;20121;-62
2022/05/05 07:36:45;;;;;;;58.75;41.47;;;;;;;16.26;56.18;102019.63;5072706;28;20480;-62
2022/05/05 07:39:13;;;;;;;58.33;39.42;;;;;;;16.29;55.34;102019.44;5072784;28;20020;-63
2022/05/05 07:41:40;;;;;;;54.90;39.15;;;;;;;16.37;54.48;102023.44;5072768;28;20033;-62
2022/05/05 07:44:06;;;;;;;52.05;37.65;;;;;;;16.49;53.96;102027.94;5070567;28;20039;-62
2022/05/05 07:46:36;;;;;;;59.28;38.40;;;;;;;16.43;53.50;102026.53;5071206;28;20384;-62
2022/05/05 07:49:04;;;;;;;53.30;38.42;;;;;;;16.58;53.57;102030.00;5070807;28;20024;-62
2022/05/05 07:51:31;;;;;;;50.05;35.42;;;;;;;16.83;53.71;102029.19;5071647;28;20025;-62
2022/05/05 07:56:43;;;;;;;51.75;35.95;;;;;;;16.92;52.91;102031.22;5086178;28;20109;-62
2022/05/05 07:59:09;;;;;;;54.40;38.42;;;;;;;16.93;53.51;102022.19;5071357;28;20028;-62
2022/05/05 08:01:35;;;;;;;50.70;32.95;;;;;;;17.09;52.86;102029.13;5072120;28;20087;-63
2022/05/05 08:04:00;;;;;;;48.50;34.25;;;;;;;17.31;52.67;102041.91;5070632;28;20063;-62
2022/05/05 08:06:26;;;;;;;53.25;34.45;;;;;;;17.54;51.09;102026.78;5071222;28;20024;-62
2022/05/05 08:08:51;;;;;;;49.00;35.35;;;;;;;17.49;51.00;102032.50;5071001;28;20368;-62
2022/05/05 08:11:17;;;;;;;57.53;38.22;;;;;;;17.25;50.98;102041.38;5072386;28;20021;-62
2022/05/05 08:13:43;;;;;;;50.38;34.78;;;;;;;17.29;51.40;102036.63;5070893;28;20031;-62
2022/05/05 08:16:08;;;;;;;52.13;36.20;;;;;;;17.47;51.41;102031.72;5071043;28;20032;-63
2022/05/05 08:18:34;;;;;;;56.50;38.10;;;;;;;17.35;51.19;102032.63;5070981;28;20036;-63
2022/05/05 08:20:59;;;;;;;52.00;37.58;;;;;;;17.35;51.57;102032.63;5087714;28;20032;-63
2022/05/05 08:23:26;;;;;;;50.97;35.50;;;;;;;17.31;51.27;102031.16;5071069;28;20036;-63
2022/05/05 08:28:38;;;;;;;51.13;36.08;;;;;;;17.21;51.24;102042.56;5071271;28;20047;-63
2022/05/05 08:31:04;;;;;;;44.05;32.63;;;;;;;17.17;52.25;102040.22;5087706;28;20021;-62
2022/05/05 08:33:29;;;;;;;41.33;31.60;;;;;;;17.15;52.10;102040.34;5070648;28;20039;-63
2022/05/05 08:35:56;;;;;;;52.28;37.85;;;;;;;17.17;52.53;102051.81;5071566;28;20024;-62
2022/05/05 08:38:22;;;;;;;55.25;37.28;;;;;;;17.16;52.72;102051.94;5070659;28;20024;-62
2022/05/05 08:40:48;;;;;;;53.72;36.15;;;;;;;17.06;52.86;102054.44;5071733;28;20472;-63
2022/05/05 08:43:14;;;;;;;56.97;39.50;;;;;;;16.92;53.20;102049.19;5070747;28;20036;-62
2022/05/05 08:45:40;;;;;;;52.90;35.70;;;;;;;17.01;52.83;102068.19;5070155;28;20024;-63
2022/05/05 08:48:11;;;;;;;53.63;37.40;;;;;;;16.96;53.68;102067.66;5071978;28;20479;-62
2022/05/05 08:50:46;;;;;;;55.00;34.65;;;;;;;17.02;52.58;102066.34;5071139;28;20506;-63
2022/05/05 08:53:15;;;;;;;48.30;35.17;;;;;;;17.00;52.63;102069.16;5071871;28;20262;-63
2022/05/05 08:55:42;;;;;;;;;;;;;;;17.17;52.55;102067.09;5072077;28;20472;-62
2022/05/05 08:58:09;;;;;;;55.38;37.20;;;;;;;16.91;53.90;102067.13;5071939;28;19962;-62
2022/05/05 09:00:34;;;;;;;55.10;36.50;;;;;;;16.82;54.11;102064.22;5071123;28;20071;-63
2022/05/05 09:03:03;;;;;;;53.30;36.75;;;;;;;16.76;54.50;102062.81;5070574;28;20484;-63
2022/05/05 09:05:45;;;;;;;50.97;37.15;;;;;;;16.75;54.44;102072.66;5069945;28;20438;-63
2022/05/05 09:08:30;;;;;;;51.38;36.13;;;;;;;16.71;54.11;102078.38;5071351;28;20052;-63
2022/05/05 09:10:59;;;;;;;47.90;34.90;;;;;;;16.71;54.66;102075.69;5071658;28;20479;-63
2022/05/05 09:13:29;;;;;;;51.60;37.20;;;;;;;16.73;54.08;102077.28;5070137;28;20115;-63
2022/05/05 09:15:55;;;;;;;52.40;35.90;;;;;;;16.73;53.92;102081.81;5070164;28;20543;-63
2022/05/05 09:18:32;;;;;;;51.00;34.38;;;;;;;16.67;53.99;102080.41;5070278;28;20025;-62
2022/05/05 09:21:03;;;;;;;54.85;34.78;;;;;;;16.62;53.75;102081.69;5071217;28;20120;-63
2022/05/05 09:23:32;;;;;;;48.85;36.10;;;;;;;16.57;54.59;102084.69;5071790;28;20476;-63
2022/05/05 09:25:59;;;;;;;47.67;35.77;;;;;;;16.61;54.55;102088.03;5070171;28;20032;-62
2022/05/05 09:28:35;;;;;;;58.28;38.50;;;;;;;16.55;54.20;102081.25;5071251;28;20029;-63
2022/05/05 09:31:09;;;;;;;49.78;35.80;;;;;;;16.68;54.51;102076.75;5071392;28;20020;-63
2022/05/05 09:33:37;;;;;;;54.55;37.45;;;;;;;16.79;54.87;102089.47;5069935;28;20029;-63
2022/05/05 09:36:05;;;;;;;52.63;37.05;;;;;;;16.84;54.28;102095.38;5071273;28;20104;-63
2022/05/05 09:38:54;;;;;;;51.80;36.08;;;;;;;16.90;53.59;102092.28;5071298;28;20494;-63
2022/05/05 09:41:23;;;;;;;51.47;36.47;;;;;;;16.88;54.65;102096.03;5071425;28;20078;-63
2022/05/05 09:43:49;;;;;;;55.25;39.78;;;;;;;16.85;54.71;102097.09;5070927;28;20551;-62
2022/05/05 09:46:25;;;;;;;52.13;38.63;;;;;;;16.87;54.53;102100.53;5070020;28;20029;-62
2022/05/05 09:49:03;;;;;;;52.38;38.50;;;;;;;16.95;54.98;102095.50;5069415;28;20028;-63
2022/05/05 09:51:29;;;;;;;53.08;38.20;;;;;;;17.05;55.21;102102.91;5071538;28;20119;-63
2022/05/05 09:59:40;;;;;;;52.80;38.33;;;;;;;17.31;54.04;102093.00;5071528;28;20040;-63
2022/05/05 10:02:22;;;;;;;50.45;37.47;;;;;;;17.38;53.77;102091.59;5069657;28;20043;-63
2022/05/05 10:04:51;;;;;;;55.97;38.58;;;;;;;17.57;53.68;102101.88;5070627;28;20399;-63
2022/05/05 10:07:20;;;;;;;52.08;38.92;;;;;;;17.58;53.30;102104.44;5071013;28;20521;-63
2022/05/05 10:09:47;;;;;;;53.17;38.42;;;;;;;17.70;52.02;102111.63;5052944;28;20391;-63
2022/05/05 10:12:14;;;;;;;59.45;39.28;;;;;;;17.67;52.40;102098.41;5069645;28;20494;-62
2022/05/05 10:14:40;;;;;;;52.53;39.42;;;;;;;17.74;51.02;102097.97;5070893;28;20372;-63
2022/05/05 10:17:07;;;;;;;55.70;38.90;;;;;;;17.70;52.02;102097.31;5070931;28;20032;-63
2022/05/05 10:19:33;;;;;;;48.53;38.35;;;;;;;17.84;51.72;102104.41;5070835;28;20024;-63
2022/05/05 10:22:05;;;;;;;50.50;37.75;;;;;;;17.97;51.36;102101.66;5074785;28;20419;-63
2022/05/05 10:24:44;;;;;;;51.42;38.05;;;;;;;18.17;50.81;102107.28;5073011;28;20035;-63
2022/05/05 10:27:10;;;;;;;;;;;;;;;18.49;51.00;102105.81;5073479;28;20418;-63
2022/05/05 10:29:40;;;;;;;48.78;36.08;;;;;;;18.45;50.05;102105.19;5072783;28;19908;-63
2022/05/05 10:32:09;;;;;;;49.65;36.90;;;;;;;18.52;49.80;102102.88;5073195;28;20032;-63
2022/05/05 10:34:55;;;;;;;49.90;36.90;;;;;;;18.61;50.09;102102.19;5072582;28;20039;-63
2022/05/05 10:37:32;;;;;;;53.65;38.22;;;;;;;18.77;48.67;102107.28;5073953;28;20040;-63
2022/05/05 10:39:58;;;;;;;46.97;36.20;;;;;;;18.57;48.65;102095.31;5072858;28;20052;-63
2022/05/05 10:42:27;;;;;;;52.13;37.30;;;;;;;18.54;49.47;102101.81;5072746;28;20494;-63
2022/05/05 10:45:07;;;;;;;46.87;37.77;;;;;;;18.71;49.84;102105.91;5072721;28;20032;-63
2022/05/05 10:48:01;;;;;;;49.47;36.83;;;;;;;18.88;49.75;102109.13;5072710;28;20056;-63
2022/05/05 10:50:43;;;;;;;50.78;36.05;;;;;;;18.94;48.57;102103.25;5073626;28;20020;-63
2022/05/05 10:53:28;;;;;;;49.20;37.15;;;;;;;18.98;48.69;102091.28;5073826;28;20430;-63
2022/05/05 10:55:56;;;;;;;51.60;37.60;;;;;;;19.05;48.13;102104.13;5072096;28;20047;-63
2022/05/05 10:58:57;;;;;;;50.45;38.58;;;;;;;19.14;48.05;102107.94;5072669;28;20036;-63
2022/05/05 11:01:25;;;;;;;52.05;37.63;;;;;;;19.21;47.96;102106.50;5073642;28;20056;-63
2022/05/05 11:04:31;;;;;;;45.92;36.00;;;;;;;19.22;47.01;102105.50;5073164;28;20506;-63
2022/05/05 11:07:30;;;;;;;56.88;38.97;;;;;;;19.25;47.20;102109.78;5071631;28;20063;-63
2022/05/05 11:09:58;;;;;;;49.50;36.38;;;;;;;19.12;47.17;102104.53;5040806;28;20041;-63
2022/05/05 11:12:24;;;;;;;47.13;35.10;;;;;;;19.15;47.15;102093.50;5072427;28;20020;-63
2022/05/05 11:23:26;;;;;;;45.95;34.72;;;;;;;19.85;44.25;102070.72;5073920;28;20036;-63
2022/05/05 11:25:55;;;;;;;42.92;34.47;;;;;;;20.26;43.82;102092.56;5071700;28;20044;-63
2022/05/05 11:28:24;;;;;;;40.67;33.08;;;;;;;20.55;42.81;102099.06;5073375;28;20036;-63
2022/05/05 11:30:50;;;;;;;47.63;34.15;;;;;;;20.52;42.95;102093.94;5072792;28;20267;-63
2022/05/05 11:33:19;;;;;;;44.63;34.17;;;;;;;20.64;42.90;102094.72;5055357;28;20028;-63
2022/05/05 11:35:59;;;;;;;41.55;32.92;;;;;;;20.92;43.85;102098.63;5072685;28;20101;-62
2022/05/05 11:38:28;;;;;;;45.05;33.83;;;;;;;20.91;42.86;102105.00;5071831;28;20506;-63
2022/05/05 11:41:02;;;;;;;42.28;32.70;;;;;;;20.74;43.67;102105.63;5072692;28;20476;-63
2022/05/05 11:46:13;;;;;;;40.78;31.77;;;;;;;20.55;42.88;102098.22;5073110;28;20035;-63
2022/05/05 11:48:41;;;;;;;41.78;31.17;;;;;;;20.52;44.00;102093.03;5071070;28;20029;-63
2022/05/05 11:51:07;;;;;;;42.53;31.75;;;;;;;20.50;43.03;102084.19;5072922;28;20369;-63
2022/05/05 11:53:33;;;;;;;41.88;31.27;;;;;;;20.96;42.68;102097.34;5071331;28;20037;-63